Latest Weather Observations for Legendre Island

IDW60801

Issued at 11:03 pm WST Tuesday 17 January 2017 (issued every 30 minutes, with the page automatically refreshed every 10 minutes)

About weather observations | Map of weather stations | Latest weather observations for WA | Other Formats
Station Details ID: 004095 Name: LEGENDRE ISLAND Lat: -20.36 Lon: 116.84 Height: 29.0 m
Data from the previous 72 hours. | See also: Recent months at Legendre Island
Date/Time
WST
Temp
°C
App
Temp
°C
Dew
Point
°C
Rel
Hum
%
Delta-T
°C
Wind Press
QNH
hPa
Press
MSL
hPa
Rain since
9am
mm
Dir  Spd
km/h
Gust
km/h
Spd
kts
Gust
kts
17/11:00pm 27.0 27.9 24.6 87 1.7 W 28 35 15 19 1007.3 1007.1 -
17/10:30pm 27.0 27.8 25.0 89 1.4 W 30 35 16 19 1007.4 1007.2 -
17/10:00pm 26.9 27.7 25.1 90 1.3 W 30 35 16 19 1007.3 1007.1 -
17/09:30pm 26.9 28.1 25.1 90 1.3 WNW 28 33 15 18 1007.0 1006.8 -
17/09:00pm 27.0 28.5 25.0 89 1.4 W 26 32 14 17 1007.0 1006.8 -
17/08:30pm 27.2 28.7 25.0 88 1.5 W 26 32 14 17 1006.7 1006.5 -
17/08:00pm 27.2 28.2 24.7 86 1.7 W 28 33 15 18 1006.4 1006.2 -
17/07:30pm 27.5 28.8 24.6 84 2.0 W 26 32 14 17 1005.9 1005.7 -
17/07:00pm 27.6 28.8 23.8 80 2.6 W 24 32 13 17 1005.5 1005.3 -
17/06:30pm 28.2 29.1 24.0 78 2.9 W 26 32 14 17 1005.1 1004.9 -
17/06:00pm 28.9 29.8 24.0 75 3.4 W 26 30 14 16 1004.7 1004.5 -
17/05:30pm 29.2 30.5 24.1 74 3.5 W 24 30 13 16 1004.5 1004.3 -
17/05:00pm 29.9 31.2 24.1 71 4.0 W 24 28 13 15 1004.4 1004.2 -
17/04:30pm 30.2 31.9 24.1 70 4.2 W 22 28 12 15 1004.3 1004.1 -
17/04:00pm 31.0 33.4 24.6 68 4.5 W 20 26 11 14 1004.4 1004.2 -
17/03:30pm 30.9 33.2 24.1 67 4.7 WNW 19 24 10 13 1004.7 1004.5 -
17/03:00pm 30.6 32.9 23.5 66 4.9 WNW 17 22 9 12 1005.1 1004.9 -
17/02:30pm 30.4 32.8 23.6 67 4.7 WNW 17 22 9 12 1005.4 1005.2 -
17/02:00pm 31.1 34.1 24.0 66 5.0 WNW 15 20 8 11 1005.6 1005.4 -
17/01:30pm 30.8 32.9 23.7 66 4.9 WNW 19 24 10 13 1005.8 1005.6 -
17/01:00pm 31.1 33.5 23.7 64 5.1 WNW 17 24 9 13 1006.0 1005.8 -
17/12:30pm 30.9 32.8 22.8 62 5.5 W 17 20 9 11 1006.1 1005.9 -
17/12:00pm 30.4 32.2 22.6 63 5.3 W 17 20 9 11 1006.3 1006.1 -
17/11:30am 31.0 33.0 22.9 62 5.6 WNW 17 22 9 12 1006.5 1006.3 -
17/11:00am 30.6 33.0 23.0 64 5.2 W 15 20 8 11 1006.5 1006.3 -
17/10:30am 30.6 33.0 23.0 64 5.2 WNW 15 19 8 10 1006.8 1006.6 -
17/10:00am 30.3 32.8 23.2 65 4.9 WNW 15 20 8 11 1006.8 1006.6 -
17/09:30am 29.4 32.1 22.9 68 4.4 WNW 13 20 7 11 1006.7 1006.5 -
17/09:00am 29.6 32.6 23.3 69 4.3 W 13 19 7 10 1006.7 1006.5 -
17/08:30am 29.2 32.3 22.9 69 4.3 W 11 17 6 9 1007.0 1006.8 -
17/08:00am 28.8 32.1 23.2 71 3.8 W 11 15 6 8 1006.9 1006.7 -
17/07:30am 28.0 30.6 22.7 73 3.6 W 13 15 7 8 1007.0 1006.8 -
17/07:00am 27.6 31.3 23.2 77 3.0 W 9 13 5 7 1006.9 1006.7 -
17/06:30am 26.8 29.9 23.5 82 2.3 W 13 17 7 9 1006.8 1006.6 -
17/06:00am 26.2 28.9 23.5 85 1.8 WNW 15 17 8 9 1006.7 1006.5 -
17/05:30am 26.0 28.6 23.3 85 1.8 WNW 15 20 8 11 1006.2 1006.0 -
17/05:00am 26.2 28.9 23.5 85 1.9 W 15 20 8 11 1005.7 1005.5 -
17/04:30am 26.1 28.8 23.4 85 1.8 W 15 19 8 10 1005.5 1005.3 -
17/04:00am 26.2 28.5 23.5 85 1.9 W 17 20 9 11 1005.4 1005.2 -
17/03:30am 26.6 28.9 24.1 86 1.7 W 19 22 10 12 1005.3 1005.1 -
17/03:00am 26.6 29.8 24.3 87 1.6 W 15 19 8 10 1005.1 1004.9 -
17/02:30am 26.4 28.6 23.9 86 1.7 W 19 22 10 12 1005.2 1005.0 -
17/02:00am 26.9 29.2 24.4 86 1.7 W 20 26 11 14 1005.3 1005.1 -
17/01:30am 26.7 29.2 24.4 87 1.6 W 19 22 10 12 1005.5 1005.3 -
17/01:00am 27.1 29.0 24.4 85 1.9 W 22 28 12 15 1005.5 1005.3 -
17/12:30am 27.1 30.2 24.2 84 2.0 W 15 19 8 10 1005.9 1005.7 -
17/12:00am 27.1 29.5 24.2 84 2.0 W 19 24 10 13 1006.3 1006.1 -
 
Date/Time
WST
Temp
°C
App
Temp
°C
Dew
Point
°C
Rel
Hum
%
Delta-T
°C
Wind Press
QNH
hPa
Press
MSL
hPa
Rain since
9am
mm
Dir  Spd
km/h
Gust
km/h
Spd
kts
Gust
kts
16/11:30pm 27.2 30.6 24.7 86 1.7 W 15 17 8 9 1006.9 1006.7 -
16/11:00pm 27.1 30.5 24.7 87 1.7 W 15 19 8 10 1007.1 1006.9 -
16/10:30pm 27.1 30.1 24.7 87 1.7 W 17 19 9 10 1007.2 1007.0 -
16/10:00pm 27.3 30.0 25.1 88 1.5 W 20 24 11 13 1006.9 1006.7 -
16/09:30pm 27.1 30.0 25.1 89 1.4 W 19 24 10 13 1006.7 1006.5 -
16/09:00pm 27.2 30.2 25.2 89 1.4 W 19 24 10 13 1006.4 1006.2 -
16/08:30pm 27.4 30.3 25.4 89 1.4 W 20 24 11 13 1006.1 1005.9 -
16/08:00pm 27.4 30.4 25.2 88 1.5 W 19 20 10 11 1005.8 1005.6 -
16/07:30pm 27.5 30.7 24.9 86 1.8 W 17 22 9 12 1005.4 1005.2 -
16/07:00pm 27.7 30.5 24.3 82 2.4 W 17 22 9 12 1004.9 1004.7 -
16/06:30pm 28.4 30.9 24.4 79 2.8 W 19 22 10 12 1004.5 1004.3 -
16/06:00pm 29.3 31.8 24.8 77 3.2 W 20 22 11 12 1004.2 1004.0 -
16/05:30pm 29.6 32.4 24.9 76 3.3 W 19 24 10 13 1004.1 1003.9 -
16/05:00pm 30.4 33.6 25.5 75 3.5 WNW 19 24 10 13 1004.3 1004.1 -
16/04:30pm 30.3 33.0 25.1 73 3.7 WNW 20 24 11 13 1004.4 1004.2 -
16/04:00pm 30.7 33.4 24.8 71 4.2 NW 19 24 10 13 1004.4 1004.2 -
16/03:30pm 30.8 33.4 24.9 71 4.1 WNW 20 24 11 13 1004.7 1004.5 -
16/03:00pm 30.7 33.7 24.6 70 4.3 WNW 17 22 9 12 1004.9 1004.7 -
16/02:30pm 30.5 34.0 24.9 72 3.9 WNW 15 19 8 10 1005.1 1004.9 -
16/02:00pm 31.4 35.0 25.0 69 4.5 WNW 15 20 8 11 1005.4 1005.2 -
16/01:30pm 30.9 34.8 25.5 73 3.8 NW 15 20 8 11 1005.5 1005.3 -
16/01:00pm 31.2 35.5 25.5 71 4.1 WNW 13 19 7 10 1005.7 1005.5 -
16/12:30pm 31.4 35.5 25.7 71 4.1 W 15 19 8 10 1005.9 1005.7 -
16/12:00pm 30.0 35.0 26.0 79 2.9 W 11 17 6 9 1006.1 1005.9 -
16/11:30am 29.6 35.0 25.4 78 3.0 NNW 7 9 4 5 1006.3 1006.1 -
16/11:00am 30.2 35.5 25.3 75 3.5 NNW 7 9 4 5 1006.7 1006.5 -
16/10:30am 30.1 34.7 24.7 73 3.8 W 9 11 5 6 1006.9 1006.7 -
16/10:00am 30.8 35.3 25.8 74 3.6 W 13 19 7 10 1007.0 1006.8 -
16/09:30am 30.9 36.0 27.3 81 2.6 W 15 17 8 9 1007.0 1006.8 -
16/09:00am 29.4 34.8 26.6 85 2.0 WSW 11 17 6 9 1007.0 1006.8 -
16/08:30am 29.3 34.5 26.9 87 1.7 SW 13 17 7 9 1006.8 1006.6 -
16/08:00am 28.9 34.8 27.3 91 1.2 SW 11 17 6 9 1006.8 1006.6 -
16/07:30am 28.1 33.5 27.2 95 0.6 SW 13 17 7 9 1006.7 1006.5 -
16/07:00am 27.8 33.9 27.6 99 0.1 SW 11 15 6 8 1006.6 1006.4 -
16/06:30am 27.4 33.0 27.4 100 0.0 WSW 13 17 7 9 1006.3 1006.1 -
16/06:00am 27.1 33.2 27.1 100 0.0 SW 9 11 5 6 1006.0 1005.8 -
16/05:30am 27.0 33.1 27.0 100 0.0 SW 9 11 5 6 1005.8 1005.6 -
16/05:00am 26.8 32.3 26.8 100 0.0 WSW 11 15 6 8 1005.4 1005.2 -
16/04:30am 26.6 32.0 26.6 100 0.0 WSW 11 13 6 7 1005.3 1005.1 -
16/04:00am 26.7 31.8 26.7 100 0.0 WSW 13 15 7 8 1005.2 1005.0 -
16/03:30am 26.6 32.0 26.6 100 0.0 WSW 11 13 6 7 1005.2 1005.0 -
16/03:00am 26.6 32.4 26.6 100 0.0 SW 9 13 5 7 1005.3 1005.1 -
16/02:30am 26.7 32.2 26.7 100 0.0 WSW 11 13 6 7 1005.5 1005.3 -
16/02:00am 26.8 32.3 26.8 100 0.0 WSW 11 13 6 7 1005.6 1005.4 -
16/01:30am 27.0 32.7 27.0 100 0.0 W 11 13 6 7 1005.7 1005.5 -
16/01:00am 27.1 32.8 27.1 100 0.0 WNW 11 13 6 7 1006.0 1005.8 -
16/12:30am 27.2 33.4 27.2 100 0.0 WNW 9 13 5 7 1006.3 1006.1 -
16/12:00am 27.6 32.8 26.9 96 0.5 NW 13 15 7 8 1006.5 1006.3 -
 
Date/Time
WST
Temp
°C
App
Temp
°C
Dew
Point
°C
Rel
Hum
%
Delta-T
°C
Wind Press
QNH
hPa
Press
MSL
hPa
Rain since
9am
mm
Dir  Spd
km/h
Gust
km/h
Spd
kts
Gust
kts
15/11:30pm 27.7 32.7 26.5 93 0.9 N 13 17 7 9 1006.7 1006.5 -
15/11:00pm 27.9 32.3 26.3 91 1.1 N 15 17 8 9 1006.8 1006.6 -
15/10:30pm 27.9 32.3 26.3 91 1.1 N 15 17 8 9 1006.9 1006.7 -
15/10:00pm 28.0 33.2 26.8 93 0.9 N 13 15 7 8 1006.9 1006.7 -
15/09:30pm 28.0 33.5 27.3 96 0.5 N 13 13 7 7 1006.8 1006.6 -
15/09:00pm 28.0 33.6 26.9 94 0.8 N 11 13 6 7 1006.6 1006.4 -
15/08:30pm 28.0 33.2 26.9 94 0.8 N 13 15 7 8 1006.6 1006.4 -
15/08:00pm 28.0 32.8 26.8 93 0.9 N 15 17 8 9 1006.3 1006.1 -
15/07:30pm 28.1 33.0 26.9 93 0.9 N 15 17 8 9 1005.8 1005.6 -
15/07:00pm 28.1 32.3 26.5 91 1.1 N 17 19 9 10 1005.5 1005.3 -
15/06:30pm 28.4 32.3 26.6 90 1.3 N 19 20 10 11 1005.3 1005.1 -
15/06:00pm 28.7 33.2 26.9 90 1.3 N 17 20 9 11 1004.9 1004.7 -
15/05:30pm 28.4 31.8 25.8 86 1.8 N 19 20 10 11 1004.6 1004.4 -
15/05:00pm 29.0 32.7 25.8 83 2.3 N 17 20 9 11 1004.5 1004.3 -
15/04:30pm 29.6 34.1 26.4 83 2.3 N 15 19 8 10 1004.5 1004.3 -
15/04:00pm 29.6 34.1 26.4 83 2.3 N 15 17 8 9 1004.7 1004.5 -
15/03:30pm 29.9 34.5 26.5 82 2.4 N 15 17 8 9 1004.9 1004.7 -
15/03:00pm 29.8 34.3 26.4 82 2.4 N 15 17 8 9 1004.8 1004.6 -
15/02:30pm 29.4 33.6 26.0 82 2.4 N 15 17 8 9 1005.1 1004.9 -
15/02:00pm 29.9 34.5 26.5 82 2.4 N 15 17 8 9 1005.3 1005.1 -
15/01:30pm 29.8 34.3 26.4 82 2.4 NNE 15 17 8 9 1005.7 1005.5 -
15/01:00pm 30.1 35.3 26.9 83 2.3 NNE 13 15 7 8 1005.9 1005.7 -
15/12:30pm 30.4 35.0 26.6 80 2.7 NNE 15 19 8 10 1005.9 1005.7 -
15/12:00pm 30.0 35.6 27.4 86 1.9 N 13 15 7 8 1006.0 1005.8 -
15/11:30am 30.1 38.3 29.4 96 0.5 N 7 11 4 6 1006.2 1006.0 -
15/11:00am 29.4 37.8 29.4 100 0.0 N 6 7 3 4 1006.3 1006.1 -
15/10:30am 29.4 37.8 29.4 100 0.0 NE 6 9 3 5 1006.5 1006.3 -
15/10:00am 28.6 36.8 28.6 100 0.0 N 4 7 2 4 1006.3 1006.1 -
15/09:30am 27.7 35.2 27.7 100 0.0 NNE 4 7 2 4 1006.4 1006.2 -
15/09:00am 27.1 32.8 27.1 100 0.0 SSW 11 13 6 7 1006.3 1006.1 -
15/08:30am 26.8 32.3 26.8 100 0.0 SSW 11 13 6 7 1006.3 1006.1 -
15/08:00am 26.1 31.2 26.1 100 0.0 SSW 11 15 6 8 1006.6 1006.4 -
15/07:30am 25.7 30.1 25.7 100 0.0 SSW 13 17 7 9 1006.6 1006.4 -
15/07:00am 26.1 29.7 26.1 100 0.0 SW 19 24 10 13 1006.3 1006.1 -
15/06:30am 25.9 30.5 25.9 100 0.0 S 13 17 7 9 1006.0 1005.8 -
15/06:00am 26.1 30.8 26.1 100 0.0 S 13 15 7 8 1005.8 1005.6 -
15/05:30am 26.3 31.1 26.3 100 0.0 SW 13 15 7 8 1005.5 1005.3 -
15/05:00am 26.4 31.7 26.4 100 0.0 SSW 11 15 6 8 1005.5 1005.3 -
15/04:30am 26.3 32.5 26.3 100 0.0 S 6 7 3 4 1005.4 1005.2 -
15/04:00am 26.2 32.1 26.2 100 0.0 S 7 9 4 5 1005.3 1005.1 -
15/03:30am 26.0 32.0 26.0 100 0.0 S 6 7 3 4 1004.9 1004.7 -
15/03:00am 25.8 31.4 25.8 100 0.0 S 7 7 4 4 1004.7 1004.5 -
15/02:30am 25.7 30.9 25.7 100 0.0 S 9 11 5 6 1004.8 1004.6 -
15/02:00am 25.7 30.1 25.7 100 0.0 SSW 13 17 7 9 1005.2 1005.0 -
15/01:30am 25.5 30.6 25.5 100 0.0 SSW 9 13 5 7 1005.4 1005.2 -
15/01:00am 25.5 29.8 25.5 100 0.0 SSW 13 17 7 9 1005.5 1005.3 -
15/12:30am 25.5 30.2 25.5 100 0.0 S 11 17 6 9 1005.9 1005.7 -
15/12:00am 25.4 30.0 25.4 100 0.0 SSW 11 15 6 8 1005.7 1005.5 -
 
Date/Time
WST
Temp
°C
App
Temp
°C
Dew
Point
°C
Rel
Hum
%
Delta-T
°C
Wind Press
QNH
hPa
Press
MSL
hPa
Rain since
9am
mm
Dir  Spd
km/h
Gust
km/h
Spd
kts
Gust
kts
14/11:30pm 25.0 29.0 25.0 100 0.0 WSW 13 15 7 8 1005.7 1005.5 -

Other Formats:

Comma delimited format used in spreadsheet applications
http://www.bom.gov.au/fwo/IDW60801/IDW60801.94307.axf

JavaScript Object Notation format (JSON) in row-major order
http://www.bom.gov.au/fwo/IDW60801/IDW60801.94307.json